Time;durP1;ratioP1;P1;durP2;ratioP2;P2;SDS_P1;SDS_P2;PMS_P1;PMS_P2;Temp;Humidity;BMP_temperature;BMP_pressure;BME280_temperature;BME280_humidity;BME280_pressure;Samples;Min_cycle;Max_cycle;Signal;HPM_P1;HPM_P2
2022/02/04 00:21:42;;;;;;;26.70;17.07;;;;;;;5.87;89.32;100357.34;5044297;28;20248;-69
2022/02/04 00:24:10;;;;;;;23.53;16.23;;;;;;;5.85;89.08;100359.22;5050656;28;20229;-69
2022/02/04 00:26:43;;;;;;;25.23;16.63;;;;;;;5.86;89.24;100362.72;5036891;28;20679;-69
2022/02/04 00:29:15;;;;;;;28.00;17.20;;;;;;;5.86;89.05;100355.66;5048629;28;20205;-70
2022/02/04 00:31:47;;;;;;;24.63;17.00;;;;;;;5.86;89.51;100349.50;5049478;28;20202;-69
2022/02/04 00:34:14;;;;;;;26.60;17.10;;;;;;;5.85;89.40;100351.28;5051322;28;20244;-69
2022/02/04 00:36:47;;;;;;;27.80;17.33;;;;;;;5.86;89.07;100347.72;5052209;28;20212;-70
2022/02/04 00:39:19;;;;;;;26.90;17.83;;;;;;;5.85;89.67;100351.28;5051329;28;20229;-69
2022/02/04 00:41:46;;;;;;;26.23;17.70;;;;;;;5.86;89.64;100354.78;5047169;28;20217;-69
2022/02/04 00:44:19;;;;;;;27.83;16.70;;;;;;;5.86;89.76;100349.50;5044834;28;20202;-69
2022/02/04 00:47:03;;;;;;;25.17;17.93;;;;;;;5.88;89.05;100352.94;5034629;28;20232;-70
2022/02/04 00:49:43;;;;;;;24.90;17.47;;;;;;;5.85;89.05;100353.94;5052688;28;20229;-70
2022/02/04 00:52:18;;;;;;;23.97;16.97;;;;;;;5.85;89.50;100350.44;5040160;28;20202;-69
2022/02/04 00:54:51;;;;;;;27.83;18.33;;;;;;;5.85;89.34;100359.22;5034583;28;20213;-68
2022/02/04 00:57:34;;;;;;;28.30;18.93;;;;;;;5.83;89.51;100368.16;5037549;28;20210;-70
2022/02/04 01:25:54;;;;;;;27.17;17.80;;;;;;;5.86;89.31;100368.88;5039577;28;20697;-69
2022/02/04 01:27:44;;;;;;;23.63;16.57;;;;;;;5.84;89.34;100354.00;5021778;28;20213;-70
2022/02/04 01:30:17;;;;;;;29.03;16.77;;;;;;;5.87;89.09;100359.16;5073071;22;20224;-73
2022/02/04 01:32:44;;;;;;;25.57;16.87;;;;;;;5.86;89.14;100362.72;5064747;28;20211;-72
2022/02/04 01:35:12;;;;;;;26.83;16.53;;;;;;;5.85;89.37;100358.34;5064770;28;20201;-71
2022/02/04 01:37:38;;;;;;;26.90;16.47;;;;;;;5.87;88.89;100360.00;5066864;28;20205;-72
2022/02/04 01:40:06;;;;;;;28.27;17.93;;;;;;;5.85;88.89;100361.88;5074991;28;20713;-73
2022/02/04 01:42:32;;;;;;;25.23;16.87;;;;;;;5.86;89.05;100365.38;5090888;28;20577;-70
2022/02/04 01:44:59;;;;;;;29.53;19.57;;;;;;;5.88;88.63;100363.50;5077102;28;20204;-72
2022/02/04 01:47:25;;;;;;;30.70;19.20;;;;;;;5.89;89.09;100362.59;5079307;28;20226;-72
2022/02/04 01:49:52;;;;;;;29.60;18.57;;;;;;;5.88;88.86;100364.41;5086426;28;20220;-72
2022/02/04 01:52:20;;;;;;;28.70;18.57;;;;;;;5.90;88.74;100359.03;5073396;28;20215;-72
2022/02/04 01:54:47;;;;;;;31.47;17.90;;;;;;;5.91;88.89;100361.56;5071003;28;20208;-70
2022/02/04 01:57:13;;;;;;;30.83;19.17;;;;;;;5.90;88.83;100359.91;5071565;28;20659;-72
2022/02/04 01:59:40;;;;;;;29.60;17.83;;;;;;;5.92;89.12;100359.78;5081371;28;20235;-72
2022/02/04 02:02:07;;;;;;;29.03;18.67;;;;;;;5.93;89.15;100358.84;5080439;28;20204;-72
2022/02/04 02:04:34;;;;;;;30.33;18.07;;;;;;;5.93;88.64;100349.16;5082892;28;20948;-72
2022/02/04 02:07:04;;;;;;;28.33;18.30;;;;;;;5.92;88.44;100342.16;5078336;28;20216;-71
2022/02/04 02:09:43;;;;;;;28.13;18.20;;;;;;;5.92;88.25;100343.94;5072625;28;20220;-72
2022/02/04 02:12:10;;;;;;;29.43;18.73;;;;;;;5.93;88.50;100348.28;5075501;28;20212;-73
2022/02/04 02:14:38;;;;;;;26.53;16.93;;;;;;;5.93;88.55;100337.72;5084401;28;20553;-72
2022/02/04 02:37:31;;;;;;;26.00;17.43;;;;;;;5.90;87.69;100359.03;5037023;28;20648;-72
2022/02/04 02:45:36;;;;;;;26.70;17.07;;;;;;;5.89;87.60;100346.75;5010083;28;20217;-72
2022/02/04 02:48:20;;;;;;;25.93;16.30;;;;;;;5.91;87.64;100350.19;5049745;28;20586;-72
2022/02/04 02:51:13;;;;;;;25.10;16.60;;;;;;;5.91;87.75;100347.53;5080230;28;20224;-72
2022/02/04 02:59:12;;;;;;;25.97;17.23;;;;;;;5.92;87.41;100346.56;5079630;28;20239;-72
2022/02/04 03:01:44;;;;;;;26.73;16.57;;;;;;;5.93;87.18;100346.50;5074319;28;20573;-72
2022/02/04 03:04:14;;;;;;;25.70;16.60;;;;;;;5.94;87.21;100347.34;5077675;28;20291;-72
2022/02/04 03:06:41;;;;;;;25.93;16.73;;;;;;;5.95;87.06;100348.22;5077395;28;20210;-72
2022/02/04 03:09:07;;;;;;;26.60;17.50;;;;;;;5.96;87.39;100352.56;5075800;28;20201;-71
2022/02/04 03:11:36;;;;;;;28.83;17.00;;;;;;;5.96;87.58;100345.50;5068998;28;20224;-71
2022/02/04 03:14:02;;;;;;;27.20;17.00;;;;;;;5.97;87.06;100341.94;5079313;28;20309;-72
2022/02/04 03:16:29;;;;;;;25.80;17.13;;;;;;;5.96;87.11;100334.94;5075280;28;20208;-72
2022/02/04 03:18:58;;;;;;;25.67;17.03;;;;;;;5.95;87.01;100329.72;5087398;28;20227;-72
2022/02/04 03:21:28;;;;;;;28.37;17.17;;;;;;;5.97;86.91;100333.13;5087052;28;20228;-72
2022/02/04 03:23:59;;;;;;;26.00;16.53;;;;;;;5.96;86.97;100329.63;5075344;28;20204;-72
2022/02/04 03:26:32;;;;;;;30.13;17.63;;;;;;;5.96;86.95;100331.44;5089174;28;20673;-72
2022/02/04 03:29:00;;;;;;;26.87;17.33;;;;;;;5.96;87.27;100324.34;5083502;28;20200;-73
2022/02/04 03:31:30;;;;;;;29.90;18.20;;;;;;;5.96;87.14;100334.94;5079171;28;20228;-72
2022/02/04 03:33:57;;;;;;;28.80;17.00;;;;;;;5.98;87.46;100325.13;5085743;28;20197;-72
2022/02/04 03:36:24;;;;;;;27.40;16.53;;;;;;;5.96;87.19;100329.63;5080722;28;20208;-71
2022/02/04 03:38:50;;;;;;;32.30;17.50;;;;;;;5.95;87.53;100325.28;5078483;28;20221;-72
2022/02/04 03:41:17;;;;;;;25.93;16.60;;;;;;;5.96;87.84;100321.72;5090184;28;20220;-73
2022/02/04 03:43:43;;;;;;;29.87;17.93;;;;;;;5.95;87.49;100320.00;5088583;28;20596;-72
2022/02/04 03:46:11;;;;;;;26.47;15.40;;;;;;;5.96;87.78;100320.84;5084362;28;20204;-72
2022/02/04 03:48:38;;;;;;;27.90;17.53;;;;;;;5.95;87.63;100325.28;5075133;28;20203;-72
2022/02/04 03:51:04;;;;;;;28.77;17.63;;;;;;;5.96;87.59;100316.41;5073461;28;20228;-72
2022/02/04 03:53:31;;;;;;;26.90;16.70;;;;;;;5.95;87.95;100316.50;5075724;28;20216;-72
2022/02/04 03:55:58;;;;;;;27.87;17.13;;;;;;;5.95;87.65;100309.44;5084211;28;20205;-73
2022/02/04 03:58:24;;;;;;;28.70;17.63;;;;;;;5.95;87.67;100308.56;5085748;28;20212;-70
2022/02/04 04:00:51;;;;;;;23.50;15.83;;;;;;;5.96;88.18;100312.94;5073237;28;20711;-72
2022/02/04 04:03:19;;;;;;;25.67;15.47;;;;;;;5.95;87.98;100314.72;5076704;28;20693;-71
2022/02/04 04:05:49;;;;;;;24.50;15.97;;;;;;;5.95;87.74;100327.94;5085334;28;20684;-72
2022/02/04 04:08:17;;;;;;;25.33;16.03;;;;;;;5.93;87.88;100319.22;5080031;28;20215;-72
2022/02/04 04:10:43;;;;;;;25.23;15.50;;;;;;;5.95;88.10;100314.72;5087681;28;20321;-71
2022/02/04 04:13:11;;;;;;;23.83;15.03;;;;;;;5.93;87.87;100312.13;5090620;28;20208;-71
2022/02/04 04:15:38;;;;;;;21.43;15.50;;;;;;;5.96;87.94;100311.13;5085831;28;20200;-72
2022/02/04 04:18:05;;;;;;;22.40;14.50;;;;;;;5.95;87.81;100309.44;5078641;28;20204;-72
2022/02/04 04:20:34;;;;;;;21.90;14.87;;;;;;;5.97;87.86;100310.22;5082363;28;20223;-71
2022/02/04 04:23:00;;;;;;;20.10;13.83;;;;;;;5.97;87.46;100310.22;5079415;28;20906;-71
2022/02/04 04:25:27;;;;;;;20.27;14.30;;;;;;;5.98;87.75;100306.63;5091397;28;20219;-72
2022/02/04 04:27:54;;;;;;;23.17;15.40;;;;;;;5.98;87.52;100314.56;5080580;28;20207;-72
2022/02/04 04:30:23;;;;;;;21.83;14.50;;;;;;;5.99;87.62;100311.00;5079995;28;20256;-72
2022/02/04 04:32:51;;;;;;;25.90;15.27;;;;;;;6.01;87.55;100305.63;5078161;28;20682;-72
2022/02/04 04:35:19;;;;;;;24.43;15.97;;;;;;;6.03;87.20;100301.97;5086099;28;20316;-70
2022/02/04 04:37:52;;;;;;;23.20;15.20;;;;;;;6.04;87.53;100316.91;5079949;28;20212;-72
2022/02/04 04:40:34;;;;;;;22.30;15.13;;;;;;;6.05;87.30;100313.34;5081088;28;20232;-73
2022/02/04 04:43:10;;;;;;;23.53;15.30;;;;;;;6.05;86.99;100305.41;5088117;28;20204;-72
2022/02/04 05:29:37;;;;;;;15.87;11.37;;;;;;;6.22;85.92;100267.53;5062900;28;20232;-71
2022/02/04 05:32:04;;;;;;;18.17;12.93;;;;;;;6.20;86.37;100266.75;5077844;28;20207;-71
2022/02/04 05:34:31;;;;;;;16.87;11.43;;;;;;;6.20;86.29;100254.38;5077353;28;20219;-70
2022/02/04 05:37:02;;;;;;;16.17;11.67;;;;;;;6.21;85.88;100253.44;5078689;28;20208;-71
2022/02/04 05:39:35;;;;;;;15.70;10.40;;;;;;;6.21;86.08;100252.59;5079461;28;20226;-70
2022/02/04 05:42:06;;;;;;;16.23;11.97;;;;;;;6.23;85.61;100246.31;5079840;28;20203;-71
2022/02/04 05:44:37;;;;;;;16.37;11.90;;;;;;;6.24;85.47;100252.44;5083815;28;20202;-70
2022/02/04 05:47:12;;;;;;;15.87;11.60;;;;;;;6.26;85.26;100242.66;5078414;28;20740;-71
2022/02/04 05:49:43;;;;;;;15.67;10.93;;;;;;;6.24;85.43;100242.72;5085150;28;20226;-72
2022/02/04 05:52:15;;;;;;;15.50;11.17;;;;;;;6.27;85.26;100239.03;5082365;28;20197;-72
2022/02/04 05:54:57;;;;;;;15.50;11.50;;;;;;;6.28;85.37;100236.31;5079740;28;20728;-71
2022/02/04 05:57:38;;;;;;;14.83;10.50;;;;;;;6.30;84.93;100240.66;5082411;28;20208;-71
2022/02/04 06:00:19;;;;;;;14.93;10.33;;;;;;;6.29;85.02;100231.88;5078701;28;20253;-70
2022/02/04 06:02:54;;;;;;;12.53;9.77;;;;;;;6.28;85.15;100236.31;5081287;28;20207;-71
2022/02/04 06:05:41;;;;;;;14.50;10.33;;;;;;;6.31;85.36;100234.44;5078339;28;20749;-71
2022/02/04 06:08:29;;;;;;;14.37;10.07;;;;;;;6.30;84.57;100236.25;5074933;28;20204;-72
2022/02/04 06:11:12;;;;;;;14.17;9.57;;;;;;;6.32;84.83;100223.78;5071058;28;20729;-71
2022/02/04 06:13:55;;;;;;;16.13;10.53;;;;;;;6.34;84.84;100232.50;5077015;28;20196;-70
2022/02/04 06:22:18;;;;;;;13.83;10.27;;;;;;;6.34;84.46;100229.00;5078296;28;20208;-73
2022/02/04 06:24:45;;;;;;;16.43;10.67;;;;;;;6.34;84.29;100221.06;5082206;28;20265;-72
2022/02/04 06:27:12;;;;;;;16.20;10.70;;;;;;;6.35;84.49;100215.69;5084525;28;20204;-69
2022/02/04 06:29:40;;;;;;;12.70;9.27;;;;;;;6.37;84.35;100221.78;5085596;28;20724;-71
2022/02/04 06:32:07;;;;;;;13.37;10.60;;;;;;;6.38;84.15;100219.97;5074080;28;20895;-70
2022/02/04 06:34:34;;;;;;;14.13;10.67;;;;;;;6.36;84.31;100224.50;5075679;28;20572;-70
2022/02/04 06:37:00;;;;;;;13.37;9.33;;;;;;;6.35;84.06;100218.34;5077800;28;20200;-70
2022/02/04 06:39:27;;;;;;;12.17;9.80;;;;;;;6.37;84.66;100218.28;5075281;28;20233;-71
2022/02/04 06:41:54;;;;;;;15.67;10.03;;;;;;;6.34;84.56;100208.69;5075164;28;20209;-71
2022/02/04 06:44:20;;;;;;;11.70;9.33;;;;;;;6.36;84.62;100213.91;5075294;28;20207;-71
2022/02/04 06:46:48;;;;;;;11.10;9.17;;;;;;;6.38;84.57;100201.47;5077963;28;20205;-71
2022/02/04 06:49:15;;;;;;;13.10;8.93;;;;;;;6.37;84.43;100212.97;5081940;28;20653;-70
2022/02/04 06:51:42;;;;;;;13.87;9.63;;;;;;;6.37;84.53;100215.63;5081523;28;20201;-72
2022/02/04 06:54:08;;;;;;;12.77;9.30;;;;;;;6.36;84.46;100216.56;5084879;28;20219;-71
2022/02/04 06:56:36;;;;;;;12.13;9.07;;;;;;;6.38;84.18;100222.63;5083855;28;20211;-70
2022/02/04 06:59:03;;;;;;;11.27;8.63;;;;;;;6.33;84.25;100219.34;5078125;28;20220;-71
2022/02/04 07:01:31;;;;;;;13.10;9.50;;;;;;;6.34;84.51;100229.00;5080864;28;20232;-70
2022/02/04 07:04:03;;;;;;;12.90;8.80;;;;;;;6.33;84.11;100230.78;5070819;28;20238;-70
2022/02/04 07:06:30;;;;;;;11.23;8.57;;;;;;;6.34;84.69;100227.22;5082233;28;20209;-71
2022/02/04 07:09:12;;;;;;;13.83;9.53;;;;;;;6.37;84.34;100228.84;5071200;28;20205;-70
2022/02/04 07:12:02;;;;;;;11.03;8.77;;;;;;;6.35;84.17;100214.84;5077586;28;20231;-71
2022/02/04 07:14:38;;;;;;;11.87;9.00;;;;;;;6.36;84.31;100224.50;5068861;28;20236;-71
2022/02/04 07:17:15;;;;;;;13.67;10.73;;;;;;;6.32;84.74;100222.94;5068736;28;20200;-70
2022/02/04 07:19:47;;;;;;;10.97;7.33;;;;;;;6.34;84.09;100221.06;5074676;28;20314;-71
2022/02/04 07:22:15;;;;;;;11.77;9.13;;;;;;;6.32;84.72;100230.88;5077546;28;20308;-70
2022/02/04 07:24:41;;;;;;;13.13;9.40;;;;;;;6.30;84.82;100215.09;5072415;28;20223;-71
2022/02/04 07:27:08;;;;;;;11.43;8.90;;;;;;;6.30;84.71;100225.66;5071476;28;20212;-70
2022/02/04 07:32:14;;;;;;;9.87;8.23;;;;;;;6.27;85.15;100218.72;5068365;22;20233;-80
2022/02/04 07:34:50;;;;;;;10.73;7.77;;;;;;;6.27;85.02;100218.72;5063410;28;20205;-80
2022/02/04 07:42:44;;;;;;;9.67;8.00;;;;;;;6.27;84.55;100213.44;5054824;28;20232;-79
2022/02/04 07:45:11;;;;;;;9.73;7.17;;;;;;;6.27;84.93;100228.47;5069160;28;20272;-80
2022/02/04 07:47:37;;;;;;;9.77;7.67;;;;;;;6.25;85.46;100233.84;5067742;28;20208;-80
2022/02/04 07:50:07;;;;;;;8.87;7.60;;;;;;;6.26;85.03;100224.13;5057143;28;20715;-80
2022/02/04 07:52:34;;;;;;;10.33;7.93;;;;;;;6.27;85.46;100229.31;5056495;28;20293;-80
2022/02/04 07:55:01;;;;;;;9.13;7.83;;;;;;;6.25;85.09;100223.28;5068397;28;20645;-80
2022/02/04 07:57:27;;;;;;;9.20;7.90;;;;;;;6.26;85.11;100222.34;5073568;28;20201;-79
2022/02/04 08:00:00;;;;;;;8.50;7.03;;;;;;;6.28;85.62;100209.88;5060674;28;20264;-80
2022/02/04 08:02:27;;;;;;;9.23;7.47;;;;;;;6.31;85.03;100208.00;5074787;28;20239;-80
2022/02/04 08:04:57;;;;;;;10.67;7.70;;;;;;;6.28;84.98;100206.38;5064508;28;20288;-80
2022/02/04 08:07:29;;;;;;;8.00;6.43;;;;;;;6.27;85.32;100200.22;5072504;28;20686;-80
2022/02/04 08:10:04;;;;;;;8.50;6.50;;;;;;;6.29;84.96;100200.16;5065093;28;20204;-80
2022/02/04 08:12:59;;;;;;;9.40;7.27;;;;;;;6.30;84.96;100195.72;5060140;28;20576;-81
2022/02/04 08:15:42;;;;;;;8.97;6.93;;;;;;;6.29;85.00;100200.16;5075105;28;20292;-80
2022/02/04 08:18:30;;;;;;;8.33;6.17;;;;;;;6.32;84.82;100196.50;5062212;28;20208;-81
2022/02/04 08:21:20;;;;;;;7.03;6.30;;;;;;;6.35;84.35;100197.19;5061689;28;20245;-80
2022/02/04 08:24:09;;;;;;;7.20;5.90;;;;;;;6.36;85.15;100198.03;5068619;28;20604;-80
2022/02/04 08:27:05;;;;;;;7.73;6.47;;;;;;;6.37;84.39;100197.09;5077560;28;20209;-80
2022/02/04 08:29:50;;;;;;;7.50;5.90;;;;;;;6.39;84.66;100200.53;5075025;28;20231;-80
2022/02/04 08:32:32;;;;;;;7.17;5.63;;;;;;;6.41;84.24;100193.38;5077910;28;20233;-80
2022/02/04 08:48:58;;;;;;;6.63;5.27;;;;;;;6.51;84.30;100191.94;5064128;28;20208;-81
2022/02/04 08:51:38;;;;;;;6.17;4.90;;;;;;;6.52;83.94;100199.78;5076412;28;20558;-81
2022/02/04 08:54:20;;;;;;;5.50;4.50;;;;;;;6.53;84.32;100201.50;5069216;28;20229;-80
2022/02/04 08:56:56;;;;;;;7.23;5.03;;;;;;;6.55;84.29;100188.19;5069212;28;20236;-80
2022/02/04 08:59:31;;;;;;;7.80;5.50;;;;;;;6.56;84.65;100205.78;5060823;28;20212;-80
2022/02/04 09:02:03;;;;;;;7.93;5.33;;;;;;;6.56;84.36;100198.69;5059551;28;20497;-79
2022/02/04 09:04:39;;;;;;;7.10;5.47;;;;;;;6.61;84.52;100193.16;5064869;28;20201;-80
2022/02/04 09:07:09;;;;;;;6.60;5.40;;;;;;;6.63;84.00;100187.78;5072551;28;20204;-80
2022/02/04 09:09:50;;;;;;;7.27;6.17;;;;;;;6.61;83.98;100186.06;5069814;28;20216;-80
2022/02/04 09:20:58;;;;;;;5.30;4.80;;;;;;;6.67;83.98;100168.13;5034442;28;20260;-80
2022/02/04 09:23:26;;;;;;;5.23;4.50;;;;;;;6.69;83.65;100172.41;5069920;28;20216;-81
2022/02/04 09:25:53;;;;;;;4.60;4.13;;;;;;;6.69;84.34;100166.25;5065872;28;20300;-80
2022/02/04 09:28:22;;;;;;;5.10;4.30;;;;;;;6.69;84.71;100169.75;5072477;28;20292;-80
2022/02/04 09:30:51;;;;;;;4.97;4.27;;;;;;;6.72;84.13;100148.44;5063787;28;20249;-80
2022/02/04 09:33:18;;;;;;;5.90;5.00;;;;;;;6.74;84.17;100151.84;5067017;28;20250;-80
2022/02/04 09:35:45;;;;;;;5.20;4.53;;;;;;;6.73;84.12;100152.78;5075992;28;20219;-80
2022/02/04 09:38:11;;;;;;;5.67;4.67;;;;;;;6.74;85.02;100138.63;5069618;28;20302;-79
2022/02/04 09:40:38;;;;;;;4.67;4.23;;;;;;;6.77;84.45;100134.94;5073284;28;20309;-80
2022/02/04 09:43:08;;;;;;;6.30;4.30;;;;;;;6.78;84.76;100136.66;5075692;28;20256;-80
2022/02/04 09:45:37;;;;;;;6.00;4.63;;;;;;;6.82;84.99;100139.03;5072671;28;20469;-80
2022/02/04 09:48:06;;;;;;;4.87;4.30;;;;;;;6.86;84.47;100145.00;5065507;28;20212;-80
2022/02/04 09:50:37;;;;;;;4.27;3.63;;;;;;;6.87;84.71;100134.34;5073018;28;20228;-80
2022/02/04 10:10:11;;;;;;;4.43;4.03;;;;;;;7.03;84.83;100120.22;5070285;28;20354;-79
2022/02/04 10:12:57;;;;;;;5.57;4.50;;;;;;;7.04;84.66;100106.03;5071810;28;20227;-80
2022/02/04 10:15:32;;;;;;;5.67;4.33;;;;;;;7.08;84.24;100113.72;5070839;28;20208;-79
2022/02/04 10:18:05;;;;;;;5.30;4.63;;;;;;;7.14;84.05;100112.53;5069345;28;20204;-80
2022/02/04 10:20:32;;;;;;;5.37;4.80;;;;;;;7.16;84.16;100100.91;5069685;28;20213;-80
2022/02/04 10:23:03;;;;;;;5.37;4.83;;;;;;;7.20;83.95;100099.78;5071358;28;20336;-78
2022/02/04 10:25:33;;;;;;;5.40;4.47;;;;;;;7.23;83.87;100104.91;5070831;28;20646;-80
2022/02/04 10:28:03;;;;;;;4.90;3.90;;;;;;;7.26;83.61;100111.81;5071666;28;20705;-80
2022/02/04 10:30:32;;;;;;;4.53;4.13;;;;;;;7.31;83.14;100109.75;5070412;28;20301;-81
2022/02/04 10:33:02;;;;;;;6.00;4.50;;;;;;;7.31;83.24;100104.47;5068824;28;20221;-79
2022/02/04 10:35:33;;;;;;;5.00;4.47;;;;;;;7.35;83.36;100099.81;5069339;28;20292;-80
2022/02/04 10:38:10;;;;;;;5.87;5.37;;;;;;;7.39;82.97;100098.69;5070195;28;20193;-79
2022/02/04 10:40:47;;;;;;;6.37;4.30;;;;;;;7.42;82.32;100095.88;5072665;28;20297;-80
2022/02/04 10:43:40;;;;;;;5.30;4.50;;;;;;;7.45;82.49;100090.41;5071375;28;20784;-79
2022/02/04 10:46:18;;;;;;;5.30;4.50;;;;;;;7.43;82.33;100077.25;5070936;28;20571;-80
2022/02/04 10:57:32;;;;;;;6.03;4.57;;;;;;;7.55;80.74;100049.16;5068975;28;20284;-79
2022/02/04 11:00:13;;;;;;;7.20;5.63;;;;;;;7.54;81.70;100034.19;5073081;28;20207;-80
2022/02/04 11:02:54;;;;;;;5.87;4.50;;;;;;;7.57;81.05;100042.81;5071210;28;20220;-79
2022/02/04 11:05:30;;;;;;;4.77;4.03;;;;;;;7.62;80.59;100040.75;5067755;28;20291;-78
2022/02/04 11:35:56;;;;;;;3.60;2.80;;;;;;;7.76;79.05;99983.38;5066229;28;20198;-79
2022/02/04 11:52:51;;;;;;;2.37;2.17;;;;;;;7.88;78.35;99937.56;5061225;28;20629;-79
2022/02/04 11:55:33;;;;;;;2.50;2.20;;;;;;;7.88;78.51;99953.47;5060380;28;20237;-79
2022/02/04 11:58:04;;;;;;;2.20;2.00;;;;;;;7.92;78.96;99944.34;5066673;28;20197;-79
2022/02/04 12:00:41;;;;;;;3.03;2.00;;;;;;;7.94;78.76;99938.00;5064354;28;20213;-78
2022/02/04 12:03:34;;;;;;;2.03;1.80;;;;;;;7.97;79.02;99939.59;5065633;28;20689;-79
2022/02/04 12:06:01;;;;;;;3.10;2.50;;;;;;;7.99;78.54;99927.97;5057926;28;20235;-81
2022/02/04 12:08:32;;;;;;;3.23;2.90;;;;;;;8.02;78.77;99927.78;5075449;28;20201;-82
2022/02/04 12:11:11;;;;;;;2.07;1.90;;;;;;;8.05;78.85;99916.13;5070165;28;20214;-82
2022/02/04 12:14:12;;;;;;;1.93;1.73;;;;;;;8.06;79.34;99920.44;5057078;28;21011;-82
2022/02/04 12:17:05;;;;;;;1.80;1.57;;;;;;;8.10;78.95;99908.69;5067766;28;20212;-80
2022/02/04 12:19:37;;;;;;;1.53;1.43;;;;;;;8.13;79.22;99905.00;5077493;28;20247;-80
2022/02/04 12:22:03;;;;;;;2.33;1.40;;;;;;;8.15;78.57;99905.75;5077602;28;20239;-81
2022/02/04 12:24:32;;;;;;;2.40;1.10;;;;;;;8.15;79.37;99900.44;5077580;28;20215;-80
2022/02/04 12:27:34;;;;;;;1.50;1.40;;;;;;;8.15;79.15;99900.44;5069440;28;20212;-82
2022/02/04 12:30:20;;;;;;;1.93;1.30;;;;;;;8.16;79.26;99892.41;5060673;28;20208;-80
2022/02/04 12:32:48;;;;;;;2.03;1.83;;;;;;;8.15;79.17;99890.69;5062940;28;20664;-81
2022/02/04 12:35:18;;;;;;;2.10;1.57;;;;;;;8.13;79.07;99891.72;5065977;28;20221;-80
2022/02/04 12:37:46;;;;;;;1.67;1.43;;;;;;;8.20;78.75;99866.53;5069664;28;20201;-81
2022/02/04 12:40:13;;;;;;;2.53;2.00;;;;;;;8.25;78.92;99862.59;5071944;28;20206;-81
2022/02/04 12:42:44;;;;;;;1.50;1.40;;;;;;;8.32;79.02;99844.50;5082596;28;20229;-81
2022/02/04 12:45:13;;;;;;;2.93;1.70;;;;;;;8.39;78.88;99847.63;5076195;28;20212;-80
2022/02/04 12:47:41;;;;;;;2.80;1.30;;;;;;;8.42;79.08;99840.28;5067627;28;20620;-81
2022/02/04 12:50:09;;;;;;;1.77;1.37;;;;;;;8.49;78.22;99820.34;5070128;28;20827;-79
2022/02/04 12:52:43;;;;;;;1.47;0.97;;;;;;;8.53;78.44;99821.00;5073466;28;20228;-81
2022/02/04 12:55:20;;;;;;;1.20;1.10;;;;;;;8.59;78.15;99815.28;5076486;28;20208;-80
2022/02/04 12:58:09;;;;;;;1.20;1.00;;;;;;;8.66;77.52;99814.72;5072129;28;20585;-81
2022/02/04 13:02:00;;;;;;;1.50;0.50;;;;;;;8.73;77.71;99811.66;5071346;28;20200;-82
2022/02/04 13:07:26;;;;;;;1.13;0.90;;;;;;;8.74;76.54;99810.72;5072979;28;20229;-80
2022/02/04 13:09:48;;;;;;;0.70;0.60;;;;;;;8.78;75.55;99812.22;5074238;28;20433;-81
2022/02/04 13:12:06;;;;;;;1.00;0.60;;;;;;;8.77;75.78;99794.56;5069129;28;20201;-81
2022/02/04 13:14:34;;;;;;;1.07;0.70;;;;;;;8.75;75.15;99800.00;5066739;28;20207;-80
2022/02/04 13:17:01;;;;;;;0.93;0.60;;;;;;;8.74;75.32;99800.09;5069096;28;20211;-80
2022/02/04 13:19:27;;;;;;;0.73;0.70;;;;;;;8.73;75.02;99801.91;5065137;28;20201;-80
2022/02/04 13:21:54;;;;;;;2.20;0.80;;;;;;;8.73;75.53;99804.56;5068786;28;20224;-82
2022/02/04 13:24:21;;;;;;;0.60;0.60;;;;;;;8.72;75.66;99804.66;5067693;28;20212;-81
2022/02/04 13:26:48;;;;;;;0.83;0.60;;;;;;;8.74;75.97;99792.13;5071606;28;20197;-80
2022/02/04 13:29:15;;;;;;;0.80;0.60;;;;;;;8.71;75.58;99798.50;5067457;28;20233;-81
2022/02/04 13:31:43;;;;;;;0.63;0.50;;;;;;;8.74;75.77;99786.81;5064802;28;20213;-80
2022/02/04 13:34:11;;;;;;;0.40;0.40;;;;;;;8.68;75.93;99785.44;5074016;28;20307;-81
2022/02/04 13:36:41;;;;;;;0.80;0.80;;;;;;;8.69;75.87;99779.16;5062578;28;20288;-82
2022/02/04 13:39:19;;;;;;;1.30;0.60;;;;;;;8.66;75.41;99774.91;5068080;28;20735;-82
2022/02/04 13:41:59;;;;;;;0.90;0.50;;;;;;;8.65;75.45;99764.41;5070080;28;20278;-81
2022/02/04 13:44:35;;;;;;;0.40;0.40;;;;;;;8.60;76.01;99774.47;5063455;28;20663;-81
2022/02/04 13:47:21;;;;;;;0.70;0.60;;;;;;;8.58;75.32;99768.47;5064936;28;20651;-81
2022/02/04 13:52:58;;;;;;;0.50;0.40;;;;;;;8.48;75.82;99760.25;5072626;28;20593;-81
2022/02/04 13:55:35;;;;;;;1.43;0.47;;;;;;;8.49;76.17;99764.63;5076522;28;20574;-82
2022/02/04 13:58:17;;;;;;;0.80;0.60;;;;;;;8.49;76.04;99751.34;5076766;28;20211;-82
2022/02/04 14:00:54;;;;;;;0.67;0.50;;;;;;;8.46;76.39;99764.81;5063200;28;20321;-82
2022/02/04 14:03:25;;;;;;;0.40;0.40;;;;;;;8.45;76.54;99760.47;5061445;28;20237;-82
2022/02/04 14:05:58;;;;;;;0.50;0.40;;;;;;;8.45;76.94;99756.97;5066758;28;20291;-83
2022/02/04 14:08:31;;;;;;;0.70;0.50;;;;;;;8.43;76.51;99749.09;5073980;28;20288;-82
2022/02/04 14:11:01;;;;;;;0.67;0.50;;;;;;;8.44;76.31;99742.84;5063050;28;20201;-82
2022/02/04 14:13:30;;;;;;;0.60;0.60;;;;;;;8.45;76.30;99741.03;5066764;28;20228;-82
2022/02/04 14:15:59;;;;;;;1.03;1.00;;;;;;;8.42;75.88;99739.44;5067952;28;20216;-83
2022/02/04 14:18:28;;;;;;;0.33;0.33;;;;;;;8.43;76.46;99730.53;5073647;28;20209;-81
2022/02/04 14:20:55;;;;;;;0.37;0.37;;;;;;;8.45;75.57;99735.72;5055473;28;20213;-83
2022/02/04 14:23:23;;;;;;;1.27;0.30;;;;;;;8.44;75.79;99736.69;5062746;28;20224;-82
2022/02/04 14:25:56;;;;;;;0.70;0.70;;;;;;;8.47;75.37;99729.38;5070973;28;20205;-81
2022/02/04 14:28:31;;;;;;;0.87;0.80;;;;;;;8.45;75.60;99725.13;5055026;28;20194;-82
2022/02/04 14:31:04;;;;;;;1.60;0.90;;;;;;;8.42;74.88;99726.19;5068619;28;20212;-82
2022/02/04 14:36:55;;;;;;;0.60;0.60;;;;;;;8.41;74.64;99718.34;5068579;27;1254051;-69
2022/02/04 14:53:15;;;;;;;1.23;0.80;;;;;;;8.40;74.96;99683.00;5063864;28;20219;-67
2022/02/04 14:58:44;;;;;;;4.07;2.40;;;;;;;8.33;75.26;99674.63;5084358;28;20594;-72
2022/02/04 15:01:18;;;;;;;3.30;2.10;;;;;;;8.27;75.90;99675.00;5092013;28;20330;-73
2022/02/04 15:03:53;;;;;;;2.87;2.00;;;;;;;8.26;76.08;99688.38;5090766;28;20309;-72
2022/02/04 15:06:27;;;;;;;1.60;0.87;;;;;;;8.26;75.60;99681.25;5086258;28;20200;-72
2022/02/04 15:08:55;;;;;;;6.80;3.60;;;;;;;8.20;75.65;99676.41;5082925;28;20285;-71
2022/02/04 15:11:29;;;;;;;3.03;2.73;;;;;;;8.11;75.96;99669.06;5086686;28;20220;-72
2022/02/04 15:13:56;;;;;;;5.40;3.93;;;;;;;8.06;76.28;99657.09;5085902;28;20211;-72
2022/02/04 15:16:22;;;;;;;1.90;1.70;;;;;;;8.05;76.34;99653.59;5086282;28;20220;-72
2022/02/04 15:18:49;;;;;;;1.53;1.37;;;;;;;8.00;76.46;99645.09;5089689;28;20215;-71
2022/02/04 15:21:18;;;;;;;1.53;0.90;;;;;;;8.05;76.01;99656.25;5084576;28;20220;-72
2022/02/04 15:23:50;;;;;;;1.47;1.37;;;;;;;7.97;75.30;99663.84;5086741;28;20219;-70
2022/02/04 15:26:19;;;;;;;1.50;1.37;;;;;;;7.91;75.76;99664.25;5087934;28;20209;-68
2022/02/04 15:28:49;;;;;;;3.43;3.20;;;;;;;7.92;76.24;99653.56;5085952;28;20640;-72
2022/02/04 15:31:24;;;;;;;1.83;1.73;;;;;;;7.93;76.35;99636.69;5084917;28;20220;-72
2022/02/04 15:33:52;;;;;;;5.00;4.03;;;;;;;7.92;76.37;99650.06;5090937;28;20236;-72
2022/02/04 15:36:26;;;;;;;1.50;1.40;;;;;;;7.92;76.43;99655.38;5084825;28;20223;-72
2022/02/04 15:38:53;;;;;;;1.47;1.37;;;;;;;7.87;76.62;99646.91;5085568;28;20288;-72
2022/02/04 15:41:23;;;;;;;2.10;1.43;;;;;;;7.81;76.59;99647.31;5086598;28;20220;-71
2022/02/04 15:43:54;;;;;;;1.10;0.87;;;;;;;7.81;76.22;99637.56;5089137;28;20279;-74
2022/02/04 15:46:41;;;;;;;1.60;1.40;;;;;;;7.77;76.98;99643.16;5081361;28;20678;-73
2022/02/04 15:49:18;;;;;;;2.67;1.43;;;;;;;7.70;76.85;99636.59;5074512;28;20209;-72
2022/02/04 15:52:03;;;;;;;0.87;0.60;;;;;;;7.69;77.48;99624.28;5074023;28;20223;-71
2022/02/04 15:54:47;;;;;;;1.30;1.10;;;;;;;7.63;77.90;99613.16;5074360;28;20558;-71
2022/02/04 15:57:32;;;;;;;2.77;2.17;;;;;;;7.60;78.11;99597.44;5071112;28;20208;-71
2022/02/04 16:00:28;;;;;;;1.27;0.90;;;;;;;7.55;78.54;99594.25;5074742;28;20223;-71
2022/02/04 16:03:16;;;;;;;1.70;1.03;;;;;;;7.48;79.04;99592.97;5072003;28;20231;-71
2022/02/04 16:05:44;;;;;;;0.87;0.70;;;;;;;7.50;79.20;99575.19;5067681;28;20595;-71